createdAt,value
2018-07-20T00:05:02.325Z,14.66
2018-07-20T00:10:07.014Z,14.56
2018-07-20T00:15:11.784Z,14.53
2018-07-20T00:20:16.614Z,14.47
2018-07-20T00:25:21.364Z,14.45
2018-07-20T00:30:26.001Z,14.33
2018-07-20T00:35:30.724Z,14.26
2018-07-20T00:40:35.356Z,14.14
2018-07-20T00:45:40.128Z,14.04
2018-07-20T00:50:44.560Z,14.14
2018-07-20T00:55:49.185Z,14.01
2018-07-20T01:00:53.854Z,13.85
2018-07-20T01:05:58.570Z,14.13
2018-07-20T01:11:03.343Z,13.86
2018-07-20T01:16:08.125Z,13.77
2018-07-20T01:21:12.820Z,13.71
2018-07-20T01:26:17.530Z,13.68
2018-07-20T01:31:22.268Z,13.64
2018-07-20T01:36:27.168Z,13.61
2018-07-20T01:41:31.461Z,13.46
2018-07-20T01:46:36.138Z,13.29
2018-07-20T01:51:40.816Z,13.24
2018-07-20T01:56:45.644Z,13.24
2018-07-20T02:01:50.334Z,13.11
2018-07-20T02:06:54.976Z,12.95
2018-07-20T02:11:59.782Z,12.94
2018-07-20T02:17:04.476Z,12.91
2018-07-20T02:22:09.187Z,12.85
2018-07-20T02:27:13.908Z,12.79
2018-07-20T02:32:18.548Z,12.77
2018-07-20T02:37:23.413Z,12.78
2018-07-20T02:42:28.086Z,12.76
2018-07-20T02:47:32.740Z,12.86
2018-07-20T02:52:37.427Z,12.65
2018-07-20T02:57:42.116Z,12.58
2018-07-20T03:02:46.804Z,12.63
2018-07-20T03:07:51.581Z,12.49
2018-07-20T03:12:56.235Z,12.46
2018-07-20T03:18:00.938Z,12.47
2018-07-20T03:23:05.689Z,12.55
2018-07-20T03:28:10.295Z,12.52
2018-07-20T03:33:14.951Z,12.49
2018-07-20T03:38:19.862Z,12.46
2018-07-20T03:43:24.504Z,12.59
2018-07-20T03:48:29.326Z,12.77
2018-07-20T03:53:34.043Z,12.84
2018-07-20T03:58:38.745Z,13.05
2018-07-20T04:03:43.501Z,13.28
2018-07-20T04:08:47.942Z,13.77
2018-07-20T04:13:52.685Z,14.50
2018-07-20T04:18:57.485Z,15.50
2018-07-20T04:24:02.461Z,15.78
2018-07-20T04:29:07.154Z,16.09
2018-07-20T04:34:11.780Z,15.91
2018-07-20T04:39:16.497Z,16.38
2018-07-20T04:44:21.352Z,16.70
2018-07-20T04:49:26.187Z,17.27
2018-07-20T04:54:30.972Z,18.62
2018-07-20T04:59:35.683Z,18.87
2018-07-20T05:04:40.575Z,18.87
2018-07-20T05:09:45.327Z,19.63
2018-07-20T05:14:49.990Z,19.85
2018-07-20T05:19:54.651Z,20.47
2018-07-20T05:24:59.451Z,20.73
2018-07-20T05:30:04.904Z,21.61
2018-07-20T05:35:09.685Z,21.04
2018-07-20T05:40:14.460Z,22.32
2018-07-20T05:45:19.165Z,22.38
2018-07-20T05:50:23.857Z,22.19
2018-07-20T05:55:28.599Z,22.77
2018-07-20T06:00:33.387Z,21.52
2018-07-20T06:05:38.128Z,21.66
2018-07-20T06:10:42.821Z,21.45
2018-07-20T06:15:47.714Z,20.85
2018-07-20T06:20:52.456Z,20.76
2018-07-20T06:25:57.190Z,21.26
2018-07-20T06:31:02.117Z,21.32
2018-07-20T06:36:06.788Z,20.85
2018-07-20T06:41:11.515Z,21.18
2018-07-20T06:46:16.291Z,21.43
2018-07-20T06:51:21.128Z,21.35
2018-07-20T06:56:25.905Z,21.79
2018-07-20T07:01:30.955Z,22.87
2018-07-20T07:06:35.300Z,22.15
2018-07-20T07:11:40.651Z,22.15
2018-07-20T07:16:45.409Z,22.38
2018-07-20T07:21:50.148Z,22.34
2018-07-20T07:26:54.860Z,23.56
2018-07-20T07:31:59.648Z,24.20
2018-07-20T07:37:04.471Z,24.84
2018-07-20T07:42:09.281Z,25.06
2018-07-20T07:47:14.191Z,26.24
2018-07-20T07:52:18.862Z,25.47
2018-07-20T07:57:23.538Z,26.23
2018-07-20T08:02:28.341Z,26.09
2018-07-20T08:07:33.084Z,26.72
2018-07-20T08:12:37.745Z,27.14
2018-07-20T08:17:42.566Z,25.84
2018-07-20T08:22:47.324Z,26.74
2018-07-20T08:27:52.101Z,26.97
2018-07-20T08:32:56.759Z,26.70
2018-07-20T08:38:01.470Z,27.05
2018-07-20T08:43:06.380Z,27.18
2018-07-20T08:48:11.156Z,27.00
2018-07-20T08:53:15.839Z,28.09
2018-07-20T08:58:20.639Z,27.91
2018-07-20T09:03:25.331Z,27.84
2018-07-20T09:08:30.052Z,28.00
2018-07-20T09:13:34.797Z,29.32
2018-07-20T09:18:39.516Z,28.97
2018-07-20T09:23:44.344Z,28.93
2018-07-20T09:28:49.128Z,29.23
2018-07-20T09:33:53.847Z,28.05
2018-07-20T09:38:58.636Z,28.09
2018-07-20T09:44:03.330Z,28.34
2018-07-20T09:49:08.047Z,28.65
2018-07-20T09:54:12.952Z,28.61
2018-07-20T09:59:17.696Z,29.54
2018-07-20T10:04:22.523Z,29.49
2018-07-20T10:09:27.270Z,30.50
2018-07-20T10:14:31.962Z,30.30
2018-07-20T10:19:36.654Z,30.42
2018-07-20T10:24:41.616Z,30.05
2018-07-20T10:29:46.302Z,30.21
2018-07-20T10:34:50.972Z,30.38
2018-07-20T10:39:55.656Z,31.08
2018-07-20T10:45:00.563Z,30.38
2018-07-20T10:50:06.349Z,30.22
2018-07-20T10:55:11.153Z,30.77
2018-07-20T11:00:16.052Z,30.45
2018-07-20T11:05:20.805Z,30.46
2018-07-20T11:10:25.514Z,30.71
2018-07-20T11:15:30.182Z,30.15
2018-07-20T11:20:35.004Z,30.77
2018-07-20T11:25:39.759Z,30.66
2018-07-20T11:30:44.440Z,30.62
2018-07-20T11:35:49.188Z,31.53
2018-07-20T11:40:53.974Z,30.47
2018-07-20T11:45:58.751Z,30.98
2018-07-20T11:51:03.539Z,32.14
2018-07-20T11:56:08.264Z,31.38
2018-07-20T12:01:13.080Z,31.06
2018-07-20T12:06:17.877Z,30.97
2018-07-20T12:11:22.672Z,31.73
2018-07-20T12:16:27.398Z,30.97
2018-07-20T12:21:32.126Z,30.73
2018-07-20T12:26:36.845Z,31.37
2018-07-20T12:31:41.756Z,31.60
2018-07-20T12:36:46.763Z,31.49
2018-07-20T12:41:51.470Z,32.31
2018-07-20T12:46:57.222Z,32.10
2018-07-20T12:52:02.021Z,31.49
2018-07-20T12:57:09.625Z,32.06
2018-07-20T13:02:14.376Z,32.15
2018-07-20T13:12:38.012Z,31.40
2018-07-20T13:17:42.782Z,31.45
2018-07-20T13:22:47.674Z,31.80
2018-07-20T13:27:52.363Z,32.08
2018-07-20T13:32:57.179Z,32.34
2018-07-20T13:38:01.876Z,32.06
2018-07-20T13:43:06.848Z,31.75
2018-07-20T13:48:11.660Z,32.06
2018-07-20T13:53:16.356Z,32.16
2018-07-20T13:58:21.062Z,32.02
2018-07-20T14:03:25.909Z,31.97
2018-07-20T14:08:30.675Z,32.53
2018-07-20T14:13:35.519Z,31.64
2018-07-20T14:18:40.364Z,31.74
2018-07-20T14:23:45.161Z,31.72
2018-07-20T14:28:50.036Z,31.90
2018-07-20T14:33:54.879Z,30.79
2018-07-20T14:38:59.689Z,31.67
2018-07-20T14:44:04.593Z,32.73
2018-07-20T14:49:09.357Z,32.57
2018-07-20T14:54:14.112Z,33.42
2018-07-20T14:59:18.794Z,32.74
2018-07-20T15:04:23.465Z,33.26
2018-07-20T15:09:29.279Z,32.59
2018-07-20T15:14:34.098Z,32.84
2018-07-20T15:19:39.053Z,31.73
2018-07-20T15:24:44.130Z,32.04
2018-07-20T15:29:53.460Z,31.45
2018-07-20T15:34:58.182Z,31.97
2018-07-20T15:40:02.956Z,32.32
2018-07-20T15:45:07.955Z,31.50
2018-07-20T15:50:12.741Z,31.95
2018-07-20T15:55:17.503Z,31.41
2018-07-20T16:00:22.258Z,30.47
2018-07-20T16:05:27.071Z,30.62
2018-07-20T16:10:31.750Z,31.37
2018-07-20T16:15:36.437Z,31.77
2018-07-20T16:20:41.217Z,32.26
2018-07-20T16:25:46.175Z,32.00
2018-07-20T16:30:50.983Z,31.87
2018-07-20T16:35:55.801Z,32.02
2018-07-20T16:41:00.599Z,31.89
2018-07-20T16:46:05.328Z,32.02
2018-07-20T16:51:10.240Z,32.33
2018-07-20T16:56:14.886Z,31.68
2018-07-20T17:01:19.740Z,31.61
2018-07-20T17:06:24.598Z,31.66
2018-07-20T17:11:29.429Z,31.25
2018-07-20T17:16:34.286Z,31.19
2018-07-20T17:21:39.056Z,31.14
2018-07-20T17:26:43.864Z,31.74
2018-07-20T17:31:48.576Z,31.26
2018-07-20T17:36:53.288Z,30.96
2018-07-20T17:41:58.122Z,30.61
2018-07-20T17:47:02.954Z,29.58
2018-07-20T17:52:07.847Z,29.15
2018-07-20T17:57:12.842Z,28.92
2018-07-20T18:02:17.760Z,28.68
2018-07-20T18:07:22.601Z,28.27
2018-07-20T18:12:27.532Z,28.05
2018-07-20T18:17:32.368Z,27.87
2018-07-20T18:22:37.204Z,27.60
2018-07-20T18:27:42.094Z,27.47
2018-07-20T18:32:46.948Z,27.48
2018-07-20T18:37:51.720Z,27.25
2018-07-20T18:42:56.585Z,26.79
2018-07-20T18:48:01.354Z,26.35
2018-07-20T18:53:06.152Z,26.08
2018-07-20T18:58:11.004Z,25.80
2018-07-20T19:03:15.747Z,25.54
2018-07-20T19:08:20.492Z,25.30
2018-07-20T19:13:25.264Z,25.01
2018-07-20T19:18:30.142Z,24.74
2018-07-20T19:23:34.913Z,24.44
2018-07-20T19:28:39.800Z,24.26
2018-07-20T19:33:44.465Z,24.50
2018-07-20T19:38:49.305Z,24.27
2018-07-20T19:43:54.004Z,24.18
2018-07-20T19:48:58.802Z,23.68
2018-07-20T19:54:03.808Z,23.30
2018-07-20T19:59:08.614Z,23.28
2018-07-20T20:04:13.416Z,23.33
2018-07-20T20:09:18.134Z,23.06
2018-07-20T20:14:22.966Z,22.69
2018-07-20T20:19:27.710Z,22.46
2018-07-20T20:24:32.754Z,22.19
2018-07-20T20:29:37.544Z,22.21
2018-07-20T20:34:42.451Z,21.96
2018-07-20T20:39:47.206Z,21.70
2018-07-20T20:44:51.996Z,21.56
2018-07-20T20:49:56.987Z,21.76
2018-07-20T20:55:01.902Z,21.87
2018-07-20T21:00:07.785Z,21.79
2018-07-20T21:05:12.580Z,21.85
2018-07-20T21:10:17.275Z,21.67
2018-07-20T21:15:22.081Z,21.44
2018-07-20T21:20:26.879Z,21.47
2018-07-20T21:25:31.659Z,21.53
2018-07-20T21:30:36.435Z,21.41
2018-07-20T21:35:41.192Z,21.27
2018-07-20T21:40:45.941Z,21.21
2018-07-20T21:45:50.660Z,21.11
2018-07-20T21:50:55.484Z,21.03
2018-07-20T21:56:00.258Z,21.29
2018-07-20T22:01:05.136Z,21.13
2018-07-20T22:06:09.955Z,21.03
2018-07-20T22:11:14.692Z,20.92
2018-07-20T22:16:19.613Z,20.95
2018-07-20T22:21:24.431Z,20.96
2018-07-20T22:26:29.115Z,21.04
2018-07-20T22:31:33.815Z,20.93
2018-07-20T22:36:38.618Z,20.84
2018-07-20T22:41:43.347Z,20.74
2018-07-20T22:46:47.693Z,20.48
2018-07-20T22:51:52.456Z,20.31
2018-07-20T22:56:57.127Z,20.37
2018-07-20T23:02:01.817Z,20.38
2018-07-20T23:07:06.358Z,20.36
2018-07-20T23:12:11.407Z,20.43
2018-07-20T23:17:16.178Z,20.24
2018-07-20T23:22:20.941Z,20.22
2018-07-20T23:27:25.695Z,19.95
2018-07-20T23:32:31.930Z,19.96
2018-07-20T23:37:36.757Z,19.82
2018-07-20T23:42:41.549Z,19.85
2018-07-20T23:47:46.273Z,19.86
2018-07-20T23:52:51.000Z,19.73
2018-07-20T23:57:55.288Z,19.48
